sensor_id;sensor_type;location;lat;lon;timestamp;temperature;humidity
1091;DHT22;534;48.704;9.122;2022-08-24T03:02:26;21.00;64.70
1091;DHT22;534;48.704;9.122;2022-08-24T03:04:53;21.00;64.70
1091;DHT22;534;48.704;9.122;2022-08-24T03:07:19;20.90;64.90
1091;DHT22;534;48.704;9.122;2022-08-24T03:09:46;20.90;65.20
1091;DHT22;534;48.704;9.122;2022-08-24T03:12:13;20.80;65.20
1091;DHT22;534;48.704;9.122;2022-08-24T03:14:39;20.80;65.20
1091;DHT22;534;48.704;9.122;2022-08-24T03:17:06;20.80;65.30
1091;DHT22;534;48.704;9.122;2022-08-24T03:19:34;20.80;65.40
1091;DHT22;534;48.704;9.122;2022-08-24T03:22:01;20.80;65.30
1091;DHT22;534;48.704;9.122;2022-08-24T03:24:28;20.80;65.30
1091;DHT22;534;48.704;9.122;2022-08-24T03:26:54;20.80;65.40
1091;DHT22;534;48.704;9.122;2022-08-24T03:29:21;20.80;65.50
1091;DHT22;534;48.704;9.122;2022-08-24T03:31:48;20.80;65.60
1091;DHT22;534;48.704;9.122;2022-08-24T03:34:15;20.70;65.60
1091;DHT22;534;48.704;9.122;2022-08-24T03:36:45;20.70;65.70
1091;DHT22;534;48.704;9.122;2022-08-24T03:39:12;20.70;65.90
1091;DHT22;534;48.704;9.122;2022-08-24T03:41:39;20.70;66.00
1091;DHT22;534;48.704;9.122;2022-08-24T03:44:05;20.70;66.00
1091;DHT22;534;48.704;9.122;2022-08-24T03:46:35;20.70;66.10
1091;DHT22;534;48.704;9.122;2022-08-24T03:49:03;20.60;66.20
1091;DHT22;534;48.704;9.122;2022-08-24T03:51:30;20.60;66.40
1091;DHT22;534;48.704;9.122;2022-08-24T03:53:59;20.60;66.50
1091;DHT22;534;48.704;9.122;2022-08-24T03:56:26;20.60;66.50
1091;DHT22;534;48.704;9.122;2022-08-24T03:58:53;20.60;66.70
1091;DHT22;534;48.704;9.122;2022-08-24T04:01:20;20.60;66.80
1091;DHT22;534;48.704;9.122;2022-08-24T04:03:47;20.60;67.00
1091;DHT22;534;48.704;9.122;2022-08-24T04:06:16;20.60;66.90
1091;DHT22;534;48.704;9.122;2022-08-24T04:08:43;20.60;67.00
1091;DHT22;534;48.704;9.122;2022-08-24T04:11:13;20.50;66.90
1091;DHT22;534;48.704;9.122;2022-08-24T04:13:40;20.50;67.00
1091;DHT22;534;48.704;9.122;2022-08-24T04:16:08;20.50;66.90
1091;DHT22;534;48.704;9.122;2022-08-24T04:18:35;20.50;66.50
1091;DHT22;534;48.704;9.122;2022-08-24T04:21:03;20.50;66.40
1091;DHT22;534;48.704;9.122;2022-08-24T04:23:30;20.50;66.30
1091;DHT22;534;48.704;9.122;2022-08-24T04:26:01;20.50;66.20
1091;DHT22;534;48.704;9.122;2022-08-24T04:28:30;20.40;66.10
1091;DHT22;534;48.704;9.122;2022-08-24T04:30:57;20.40;66.20
1091;DHT22;534;48.704;9.122;2022-08-24T04:33:25;20.40;66.10
1091;DHT22;534;48.704;9.122;2022-08-24T04:35:51;20.40;66.20
1091;DHT22;534;48.704;9.122;2022-08-24T04:38:19;20.30;66.20
1091;DHT22;534;48.704;9.122;2022-08-24T04:40:46;20.30;66.20
1091;DHT22;534;48.704;9.122;2022-08-24T04:43:14;20.30;66.40
1091;DHT22;534;48.704;9.122;2022-08-24T04:45:44;20.30;66.30
1091;DHT22;534;48.704;9.122;2022-08-24T04:48:13;20.30;66.60
1091;DHT22;534;48.704;9.122;2022-08-24T04:50:41;20.30;66.70
1091;DHT22;534;48.704;9.122;2022-08-24T04:53:10;20.30;66.60
1091;DHT22;534;48.704;9.122;2022-08-24T04:55:43;20.30;66.60
1091;DHT22;534;48.704;9.122;2022-08-24T04:58:10;20.40;66.70
1091;DHT22;534;48.704;9.122;2022-08-24T05:00:37;20.40;66.50
1091;DHT22;534;48.704;9.122;2022-08-24T05:03:05;20.50;66.40
1091;DHT22;534;48.704;9.122;2022-08-24T05:05:33;20.60;66.10
1091;DHT22;534;48.704;9.122;2022-08-24T05:08:00;20.60;65.90
1091;DHT22;534;48.704;9.122;2022-08-24T05:10:27;20.70;65.60
1091;DHT22;534;48.704;9.122;2022-08-24T05:12:53;20.70;65.50
1091;DHT22;534;48.704;9.122;2022-08-24T05:15:20;20.80;65.30
1091;DHT22;534;48.704;9.122;2022-08-24T05:17:47;20.80;65.20
1091;DHT22;534;48.704;9.122;2022-08-24T05:20:16;20.90;65.20
1091;DHT22;534;48.704;9.122;2022-08-24T05:22:42;21.00;65.20
1091;DHT22;534;48.704;9.122;2022-08-24T05:25:09;21.10;65.40
1091;DHT22;534;48.704;9.122;2022-08-24T05:27:36;21.30;65.20
1091;DHT22;534;48.704;9.122;2022-08-24T05:30:03;21.40;65.70
1091;DHT22;534;48.704;9.122;2022-08-24T05:32:30;21.60;65.60
1091;DHT22;534;48.704;9.122;2022-08-24T05:34:58;21.80;65.40
1091;DHT22;534;48.704;9.122;2022-08-24T05:37:27;21.90;64.70
1091;DHT22;534;48.704;9.122;2022-08-24T05:39:54;22.10;64.50
1091;DHT22;534;48.704;9.122;2022-08-24T05:42:20;22.30;64.60
1091;DHT22;534;48.704;9.122;2022-08-24T05:44:47;22.40;63.80
1091;DHT22;534;48.704;9.122;2022-08-24T05:47:14;22.50;63.50
1091;DHT22;534;48.704;9.122;2022-08-24T05:49:40;22.60;63.60
1091;DHT22;534;48.704;9.122;2022-08-24T05:52:07;22.80;63.40
1091;DHT22;534;48.704;9.122;2022-08-24T05:54:36;22.90;62.80
1091;DHT22;534;48.704;9.122;2022-08-24T05:57:03;23.00;62.80
1091;DHT22;534;48.704;9.122;2022-08-24T05:59:31;23.20;62.50
1091;DHT22;534;48.704;9.122;2022-08-24T06:01:57;23.30;63.00
1091;DHT22;534;48.704;9.122;2022-08-24T06:04:25;23.50;62.70
1091;DHT22;534;48.704;9.122;2022-08-24T06:06:52;23.70;62.00
1091;DHT22;534;48.704;9.122;2022-08-24T06:09:19;23.90;61.00
1091;DHT22;534;48.704;9.122;2022-08-24T06:11:47;24.10;60.60
1091;DHT22;534;48.704;9.122;2022-08-24T06:14:15;24.40;60.00
1091;DHT22;534;48.704;9.122;2022-08-24T06:16:44;24.50;59.60
1091;DHT22;534;48.704;9.122;2022-08-24T06:19:13;24.60;59.60
1091;DHT22;534;48.704;9.122;2022-08-24T06:21:41;24.80;59.30
1091;DHT22;534;48.704;9.122;2022-08-24T06:24:07;25.10;58.80
1091;DHT22;534;48.704;9.122;2022-08-24T06:26:34;25.40;57.70
1091;DHT22;534;48.704;9.122;2022-08-24T06:29:20;25.50;57.10
1091;DHT22;534;48.704;9.122;2022-08-24T06:31:48;25.70;55.80
1091;DHT22;534;48.704;9.122;2022-08-24T06:34:16;25.60;55.20
1091;DHT22;534;48.704;9.122;2022-08-24T06:36:44;25.40;56.30
1091;DHT22;534;48.704;9.122;2022-08-24T06:39:11;25.10;56.80
1091;DHT22;534;48.704;9.122;2022-08-24T06:41:38;25.20;56.60
1091;DHT22;534;48.704;9.122;2022-08-24T06:44:05;25.30;56.70
1091;DHT22;534;48.704;9.122;2022-08-24T06:46:33;25.30;56.50
1091;DHT22;534;48.704;9.122;2022-08-24T06:49:00;25.60;56.90
1091;DHT22;534;48.704;9.122;2022-08-24T06:51:27;25.80;54.70
1091;DHT22;534;48.704;9.122;2022-08-24T06:53:54;26.20;55.00
1091;DHT22;534;48.704;9.122;2022-08-24T06:56:21;26.50;54.10
1091;DHT22;534;48.704;9.122;2022-08-24T06:58:48;26.40;53.30
1091;DHT22;534;48.704;9.122;2022-08-24T07:01:18;26.50;53.70
1091;DHT22;534;48.704;9.122;2022-08-24T07:03:46;26.50;52.60
1091;DHT22;534;48.704;9.122;2022-08-24T07:06:13;26.20;52.90
1091;DHT22;534;48.704;9.122;2022-08-24T07:08:41;26.30;52.90
1091;DHT22;534;48.704;9.122;2022-08-24T07:11:09;25.90;52.50
1091;DHT22;534;48.704;9.122;2022-08-24T07:13:36;26.20;53.40
1091;DHT22;534;48.704;9.122;2022-08-24T07:16:03;25.90;52.60
1091;DHT22;534;48.704;9.122;2022-08-24T07:18:30;26.00;53.00
1091;DHT22;534;48.704;9.122;2022-08-24T07:21:00;25.90;53.30
1091;DHT22;534;48.704;9.122;2022-08-24T07:23:27;25.90;53.60
1091;DHT22;534;48.704;9.122;2022-08-24T07:25:54;26.30;53.80
1091;DHT22;534;48.704;9.122;2022-08-24T07:28:21;26.30;52.60
1091;DHT22;534;48.704;9.122;2022-08-24T07:30:48;26.00;52.60
1091;DHT22;534;48.704;9.122;2022-08-24T07:33:15;26.00;53.40
1091;DHT22;534;48.704;9.122;2022-08-24T07:35:41;26.20;53.30
1091;DHT22;534;48.704;9.122;2022-08-24T07:38:11;26.50;52.60
1091;DHT22;534;48.704;9.122;2022-08-24T07:40:38;26.50;52.50
1091;DHT22;534;48.704;9.122;2022-08-24T07:43:04;26.50;52.50
1091;DHT22;534;48.704;9.122;2022-08-24T07:45:31;26.20;54.20
1091;DHT22;534;48.704;9.122;2022-08-24T07:47:59;26.20;54.30
1091;DHT22;534;48.704;9.122;2022-08-24T07:50:28;26.00;53.50
1091;DHT22;534;48.704;9.122;2022-08-24T07:52:54;26.00;54.00
1091;DHT22;534;48.704;9.122;2022-08-24T07:55:22;26.10;54.10
1091;DHT22;534;48.704;9.122;2022-08-24T07:57:49;26.30;53.50
1091;DHT22;534;48.704;9.122;2022-08-24T08:00:17;26.10;53.00
1091;DHT22;534;48.704;9.122;2022-08-24T08:02:45;26.00;52.40
1091;DHT22;534;48.704;9.122;2022-08-24T08:05:13;26.20;52.90
1091;DHT22;534;48.704;9.122;2022-08-24T08:07:40;26.50;52.40
1091;DHT22;534;48.704;9.122;2022-08-24T08:10:08;26.40;52.60
1091;DHT22;534;48.704;9.122;2022-08-24T08:12:37;26.50;52.10
1091;DHT22;534;48.704;9.122;2022-08-24T08:15:05;26.60;51.80
1091;DHT22;534;48.704;9.122;2022-08-24T08:17:33;26.70;51.80
1091;DHT22;534;48.704;9.122;2022-08-24T08:20:00;26.80;51.60
1091;DHT22;534;48.704;9.122;2022-08-24T08:22:27;26.70;52.80
1091;DHT22;534;48.704;9.122;2022-08-24T08:25:12;27.00;51.70
1091;DHT22;534;48.704;9.122;2022-08-24T08:27:40;26.70;52.10
1091;DHT22;534;48.704;9.122;2022-08-24T08:30:08;26.50;50.20
1091;DHT22;534;48.704;9.122;2022-08-24T08:32:34;26.50;50.80
1091;DHT22;534;48.704;9.122;2022-08-24T08:35:01;26.50;49.30
1091;DHT22;534;48.704;9.122;2022-08-24T08:37:28;26.40;49.10
1091;DHT22;534;48.704;9.122;2022-08-24T08:39:56;26.20;50.20
1091;DHT22;534;48.704;9.122;2022-08-24T08:45:24;26.00;50.60
1091;DHT22;534;48.704;9.122;2022-08-24T08:51:31;25.70;51.10
1091;DHT22;534;48.704;9.122;2022-08-24T08:54:12;25.40;50.80
1091;DHT22;534;48.704;9.122;2022-08-24T08:56:45;25.50;52.00
1091;DHT22;534;48.704;9.122;2022-08-24T08:59:26;25.90;51.20
1091;DHT22;534;48.704;9.122;2022-08-24T09:02:11;26.20;50.70
1091;DHT22;534;48.704;9.122;2022-08-24T09:04:52;26.40;49.90
1091;DHT22;534;48.704;9.122;2022-08-24T09:07:34;26.50;49.40
1091;DHT22;534;48.704;9.122;2022-08-24T09:10:32;26.70;49.70
1091;DHT22;534;48.704;9.122;2022-08-24T09:13:09;26.80;48.70
1091;DHT22;534;48.704;9.122;2022-08-24T09:15:54;27.10;48.40
1091;DHT22;534;48.704;9.122;2022-08-24T09:18:36;27.10;48.30
1091;DHT22;534;48.704;9.122;2022-08-24T09:21:19;27.10;47.70
1091;DHT22;534;48.704;9.122;2022-08-24T09:23:55;27.30;48.50
1091;DHT22;534;48.704;9.122;2022-08-24T09:26:27;27.40;47.50
1091;DHT22;534;48.704;9.122;2022-08-24T09:29:03;27.60;48.10
1091;DHT22;534;48.704;9.122;2022-08-24T09:31:47;27.60;47.90
1091;DHT22;534;48.704;9.122;2022-08-24T09:34:35;27.50;49.00
1091;DHT22;534;48.704;9.122;2022-08-24T09:37:28;27.40;48.40
1091;DHT22;534;48.704;9.122;2022-08-24T09:40:00;27.70;46.10
1091;DHT22;534;48.704;9.122;2022-08-24T09:42:55;27.70;46.00
1091;DHT22;534;48.704;9.122;2022-08-24T09:45:55;27.70;46.90
1091;DHT22;534;48.704;9.122;2022-08-24T09:48:54;27.70;47.20
1091;DHT22;534;48.704;9.122;2022-08-24T09:52:06;27.80;47.30
1091;DHT22;534;48.704;9.122;2022-08-24T09:54:56;27.80;47.30
1091;DHT22;534;48.704;9.122;2022-08-24T09:57:43;28.00;47.80
1091;DHT22;534;48.704;9.122;2022-08-24T10:00:16;28.00;46.30
1091;DHT22;534;48.704;9.122;2022-08-24T10:02:54;28.00;46.80
1091;DHT22;534;48.704;9.122;2022-08-24T10:05:31;28.20;46.50
1091;DHT22;534;48.704;9.122;2022-08-24T10:08:07;28.50;45.30
1091;DHT22;534;48.704;9.122;2022-08-24T10:10:44;28.70;44.80
1091;DHT22;534;48.704;9.122;2022-08-24T10:13:22;28.70;44.90
1091;DHT22;534;48.704;9.122;2022-08-24T10:16:06;28.50;44.30
1091;DHT22;534;48.704;9.122;2022-08-24T10:18:46;28.70;45.00
1091;DHT22;534;48.704;9.122;2022-08-24T10:21:30;29.00;44.60
1091;DHT22;534;48.704;9.122;2022-08-24T10:24:24;29.40;44.20
1091;DHT22;534;48.704;9.122;2022-08-24T10:27:07;29.30;44.80
1091;DHT22;534;48.704;9.122;2022-08-24T10:29:59;29.30;44.90
1091;DHT22;534;48.704;9.122;2022-08-24T10:32:42;29.50;44.10
1091;DHT22;534;48.704;9.122;2022-08-24T10:35:13;29.40;44.20
1091;DHT22;534;48.704;9.122;2022-08-24T10:38:14;29.30;44.60
1091;DHT22;534;48.704;9.122;2022-08-24T10:44:18;29.40;45.00
1091;DHT22;534;48.704;9.122;2022-08-24T10:46:51;29.40;45.60
1091;DHT22;534;48.704;9.122;2022-08-24T10:49:52;29.60;44.40
1091;DHT22;534;48.704;9.122;2022-08-24T10:52:49;29.60;45.30
1091;DHT22;534;48.704;9.122;2022-08-24T10:55:21;29.80;44.70
1091;DHT22;534;48.704;9.122;2022-08-24T10:58:09;29.90;45.00
1091;DHT22;534;48.704;9.122;2022-08-24T11:00:38;30.10;44.00
1091;DHT22;534;48.704;9.122;2022-08-24T11:03:09;30.00;44.20
1091;DHT22;534;48.704;9.122;2022-08-24T11:05:41;30.00;43.50
1091;DHT22;534;48.704;9.122;2022-08-24T11:08:14;30.00;44.00
1091;DHT22;534;48.704;9.122;2022-08-24T11:10:43;29.70;43.80
1091;DHT22;534;48.704;9.122;2022-08-24T11:13:21;29.80;44.70
1091;DHT22;534;48.704;9.122;2022-08-24T11:15:50;30.00;44.00
1091;DHT22;534;48.704;9.122;2022-08-24T11:18:17;30.20;43.70
1091;DHT22;534;48.704;9.122;2022-08-24T11:20:46;30.20;44.10
1091;DHT22;534;48.704;9.122;2022-08-24T11:23:15;30.20;44.00
1091;DHT22;534;48.704;9.122;2022-08-24T11:25:52;30.20;43.30
1091;DHT22;534;48.704;9.122;2022-08-24T11:28:28;30.20;44.00
1091;DHT22;534;48.704;9.122;2022-08-24T11:30:57;30.10;43.90
1091;DHT22;534;48.704;9.122;2022-08-24T11:33:28;30.30;43.30
1091;DHT22;534;48.704;9.122;2022-08-24T11:35:56;30.20;43.60
1091;DHT22;534;48.704;9.122;2022-08-24T11:38:29;30.30;43.00
1091;DHT22;534;48.704;9.122;2022-08-24T11:41:01;30.30;43.50
1091;DHT22;534;48.704;9.122;2022-08-24T11:43:38;30.50;42.80
1091;DHT22;534;48.704;9.122;2022-08-24T11:46:16;30.40;43.10
1091;DHT22;534;48.704;9.122;2022-08-24T11:48:52;30.50;42.60
1091;DHT22;534;48.704;9.122;2022-08-24T11:51:28;30.40;42.30
1091;DHT22;534;48.704;9.122;2022-08-24T11:54:02;30.60;42.00
1091;DHT22;534;48.704;9.122;2022-08-24T11:56:35;30.90;42.20
1091;DHT22;534;48.704;9.122;2022-08-24T11:59:11;31.10;41.30
1091;DHT22;534;48.704;9.122;2022-08-24T12:01:45;31.00;39.80
1091;DHT22;534;48.704;9.122;2022-08-24T12:04:29;30.90;40.40
1091;DHT22;534;48.704;9.122;2022-08-24T12:07:03;31.00;40.50
1091;DHT22;534;48.704;9.122;2022-08-24T12:09:49;31.20;40.80
1091;DHT22;534;48.704;9.122;2022-08-24T12:12:21;31.40;40.10
1091;DHT22;534;48.704;9.122;2022-08-24T12:14:56;31.50;39.80
1091;DHT22;534;48.704;9.122;2022-08-24T12:17:31;31.50;38.10
1091;DHT22;534;48.704;9.122;2022-08-24T12:20:03;31.40;37.80
1091;DHT22;534;48.704;9.122;2022-08-24T12:22:31;31.40;38.90
1091;DHT22;534;48.704;9.122;2022-08-24T12:25:01;31.30;38.70
1091;DHT22;534;48.704;9.122;2022-08-24T12:27:49;31.30;39.70
1091;DHT22;534;48.704;9.122;2022-08-24T12:30:19;31.30;39.10
1091;DHT22;534;48.704;9.122;2022-08-24T12:32:48;31.40;39.10
1091;DHT22;534;48.704;9.122;2022-08-24T12:35:22;31.30;39.20
1091;DHT22;534;48.704;9.122;2022-08-24T12:37:56;31.30;38.70
1091;DHT22;534;48.704;9.122;2022-08-24T12:40:28;31.50;38.90
1091;DHT22;534;48.704;9.122;2022-08-24T12:43:00;31.50;39.20
1091;DHT22;534;48.704;9.122;2022-08-24T12:45:30;31.50;38.00
1091;DHT22;534;48.704;9.122;2022-08-24T12:48:01;31.40;39.30
1091;DHT22;534;48.704;9.122;2022-08-24T12:50:38;31.60;38.30
1091;DHT22;534;48.704;9.122;2022-08-24T12:53:26;31.80;39.00
1091;DHT22;534;48.704;9.122;2022-08-24T12:56:27;31.90;38.00
1091;DHT22;534;48.704;9.122;2022-08-24T12:59:05;32.10;37.70
1091;DHT22;534;48.704;9.122;2022-08-24T13:01:43;32.20;37.60
1091;DHT22;534;48.704;9.122;2022-08-24T13:04:15;32.20;37.50
1091;DHT22;534;48.704;9.122;2022-08-24T13:06:47;32.10;38.00
1091;DHT22;534;48.704;9.122;2022-08-24T13:09:26;32.00;37.40
1091;DHT22;534;48.704;9.122;2022-08-24T13:11:54;32.00;38.90
1091;DHT22;534;48.704;9.122;2022-08-24T13:14:23;32.20;38.10
1091;DHT22;534;48.704;9.122;2022-08-24T13:17:10;32.00;37.10
1091;DHT22;534;48.704;9.122;2022-08-24T13:19:41;31.60;36.80
1091;DHT22;534;48.704;9.122;2022-08-24T13:22:37;31.70;36.50
1091;DHT22;534;48.704;9.122;2022-08-24T13:25:25;31.80;36.50
1091;DHT22;534;48.704;9.122;2022-08-24T13:28:25;32.00;37.20
1091;DHT22;534;48.704;9.122;2022-08-24T13:31:10;32.10;37.30
1091;DHT22;534;48.704;9.122;2022-08-24T13:33:42;32.30;36.90
1091;DHT22;534;48.704;9.122;2022-08-24T13:39:34;32.30;36.80
1091;DHT22;534;48.704;9.122;2022-08-24T13:42:11;32.30;37.20
1091;DHT22;534;48.704;9.122;2022-08-24T13:45:05;32.70;36.70
1091;DHT22;534;48.704;9.122;2022-08-24T13:47:47;32.30;35.20
1091;DHT22;534;48.704;9.122;2022-08-24T13:50:30;32.30;36.90
1091;DHT22;534;48.704;9.122;2022-08-24T13:53:12;32.00;37.50
1091;DHT22;534;48.704;9.122;2022-08-24T13:55:44;31.90;37.20
1091;DHT22;534;48.704;9.122;2022-08-24T13:58:18;31.90;37.10
1091;DHT22;534;48.704;9.122;2022-08-24T14:00:52;32.20;36.10
1091;DHT22;534;48.704;9.122;2022-08-24T14:03:43;32.40;35.70
1091;DHT22;534;48.704;9.122;2022-08-24T14:06:27;32.80;34.90
1091;DHT22;534;48.704;9.122;2022-08-24T14:09:05;32.90;34.00
1091;DHT22;534;48.704;9.122;2022-08-24T14:11:51;33.30;35.00
1091;DHT22;534;48.704;9.122;2022-08-24T14:17:25;32.80;37.70
1091;DHT22;534;48.704;9.122;2022-08-24T14:20:18;32.10;38.90
1091;DHT22;534;48.704;9.122;2022-08-24T14:22:59;32.10;37.60
1091;DHT22;534;48.704;9.122;2022-08-24T14:25:30;32.50;38.40
1091;DHT22;534;48.704;9.122;2022-08-24T14:28:26;32.70;38.30
1091;DHT22;534;48.704;9.122;2022-08-24T14:31:16;32.70;38.70
1091;DHT22;534;48.704;9.122;2022-08-24T14:33:51;32.60;38.90
1091;DHT22;534;48.704;9.122;2022-08-24T14:36:25;32.90;38.70
1091;DHT22;534;48.704;9.122;2022-08-24T14:39:12;33.10;37.60
1091;DHT22;534;48.704;9.122;2022-08-24T14:41:53;33.40;36.90
1091;DHT22;534;48.704;9.122;2022-08-24T14:44:49;33.60;35.40
1091;DHT22;534;48.704;9.122;2022-08-24T14:47:25;33.80;35.90
1091;DHT22;534;48.704;9.122;2022-08-24T14:50:06;34.20;35.30
1091;DHT22;534;48.704;9.122;2022-08-24T14:52:52;34.00;35.70
1091;DHT22;534;48.704;9.122;2022-08-24T14:55:29;34.10;35.10
1091;DHT22;534;48.704;9.122;2022-08-24T14:58:05;34.40;35.90
1091;DHT22;534;48.704;9.122;2022-08-24T15:00:50;34.90;35.20
1091;DHT22;534;48.704;9.122;2022-08-24T15:03:31;35.50;34.40
1091;DHT22;534;48.704;9.122;2022-08-24T15:06:19;36.00;34.30
1091;DHT22;534;48.704;9.122;2022-08-24T15:08:48;36.70;34.60
1091;DHT22;534;48.704;9.122;2022-08-24T15:11:20;36.90;33.50
1091;DHT22;534;48.704;9.122;2022-08-24T15:13:52;37.40;33.20
1091;DHT22;534;48.704;9.122;2022-08-24T15:16:22;37.20;33.60
1091;DHT22;534;48.704;9.122;2022-08-24T15:18:59;37.00;34.00
1091;DHT22;534;48.704;9.122;2022-08-24T15:21:35;36.40;33.90
1091;DHT22;534;48.704;9.122;2022-08-24T15:24:12;36.20;35.30
1091;DHT22;534;48.704;9.122;2022-08-24T15:26:51;35.50;36.40
1091;DHT22;534;48.704;9.122;2022-08-24T15:29:21;34.90;37.60
1091;DHT22;534;48.704;9.122;2022-08-24T15:31:57;34.70;38.00
1091;DHT22;534;48.704;9.122;2022-08-24T15:34:38;34.60;38.30
1091;DHT22;534;48.704;9.122;2022-08-24T15:37:06;34.50;38.60
1091;DHT22;534;48.704;9.122;2022-08-24T15:39:33;34.70;38.20
1091;DHT22;534;48.704;9.122;2022-08-24T15:42:08;34.70;38.50
1091;DHT22;534;48.704;9.122;2022-08-24T15:44:36;34.40;38.90
1091;DHT22;534;48.704;9.122;2022-08-24T15:47:13;33.00;41.20
1091;DHT22;534;48.704;9.122;2022-08-24T15:49:46;32.70;41.80
1091;DHT22;534;48.704;9.122;2022-08-24T15:52:35;32.20;42.60
1091;DHT22;534;48.704;9.122;2022-08-24T15:55:05;31.80;43.50
1091;DHT22;534;48.704;9.122;2022-08-24T15:57:35;31.50;44.20
1091;DHT22;534;48.704;9.122;2022-08-24T16:00:07;31.10;45.00
1091;DHT22;534;48.704;9.122;2022-08-24T16:02:35;30.90;45.30
1091;DHT22;534;48.704;9.122;2022-08-24T16:05:19;30.80;45.60
1091;DHT22;534;48.704;9.122;2022-08-24T16:08:10;30.50;46.00
1091;DHT22;534;48.704;9.122;2022-08-24T16:10:40;30.40;46.70
1091;DHT22;534;48.704;9.122;2022-08-24T16:13:16;30.30;46.90
1091;DHT22;534;48.704;9.122;2022-08-24T16:15:46;30.30;47.20
1091;DHT22;534;48.704;9.122;2022-08-24T16:18:14;30.20;47.10
1091;DHT22;534;48.704;9.122;2022-08-24T16:20:42;30.10;47.70
1091;DHT22;534;48.704;9.122;2022-08-24T16:23:12;30.10;47.30
1091;DHT22;534;48.704;9.122;2022-08-24T16:25:41;30.00;47.40
1091;DHT22;534;48.704;9.122;2022-08-24T16:28:12;29.80;47.60
1091;DHT22;534;48.704;9.122;2022-08-24T16:30:58;29.80;47.40
1091;DHT22;534;48.704;9.122;2022-08-24T16:33:41;29.90;47.60
1091;DHT22;534;48.704;9.122;2022-08-24T16:36:10;29.70;47.80
1091;DHT22;534;48.704;9.122;2022-08-24T16:38:39;29.60;48.10
1091;DHT22;534;48.704;9.122;2022-08-24T16:41:08;29.40;48.50
1091;DHT22;534;48.704;9.122;2022-08-24T16:43:40;29.20;49.00
1091;DHT22;534;48.704;9.122;2022-08-24T16:46:09;29.00;49.40
1091;DHT22;534;48.704;9.122;2022-08-24T16:48:36;29.00;49.60
1091;DHT22;534;48.704;9.122;2022-08-24T16:51:04;29.10;49.60
1091;DHT22;534;48.704;9.122;2022-08-24T16:53:30;28.90;50.10
1091;DHT22;534;48.704;9.122;2022-08-24T16:55:57;28.80;50.50
1091;DHT22;534;48.704;9.122;2022-08-24T16:58:27;28.90;50.40
1091;DHT22;534;48.704;9.122;2022-08-24T17:00:56;28.90;50.80
1091;DHT22;534;48.704;9.122;2022-08-24T17:03:23;28.90;50.90
1091;DHT22;534;48.704;9.122;2022-08-24T17:05:49;28.70;51.40
1091;DHT22;534;48.704;9.122;2022-08-24T17:08:16;28.60;51.80
1091;DHT22;534;48.704;9.122;2022-08-24T17:10:43;28.60;51.70
1091;DHT22;534;48.704;9.122;2022-08-24T17:13:10;28.50;52.10
1091;DHT22;534;48.704;9.122;2022-08-24T17:15:37;28.50;52.30
1091;DHT22;534;48.704;9.122;2022-08-24T17:18:08;28.30;52.50
1091;DHT22;534;48.704;9.122;2022-08-24T17:20:35;28.30;52.70
1091;DHT22;534;48.704;9.122;2022-08-24T17:23:02;28.30;52.80
1091;DHT22;534;48.704;9.122;2022-08-24T17:25:29;28.30;53.00
1091;DHT22;534;48.704;9.122;2022-08-24T17:27:57;28.10;53.10
1091;DHT22;534;48.704;9.122;2022-08-24T17:30:24;28.10;53.10
1091;DHT22;534;48.704;9.122;2022-08-24T17:32:52;28.00;53.60
1091;DHT22;534;48.704;9.122;2022-08-24T17:35:21;27.90;53.80
1091;DHT22;534;48.704;9.122;2022-08-24T17:37:49;27.90;53.80
1091;DHT22;534;48.704;9.122;2022-08-24T17:40:19;28.00;53.80
1091;DHT22;534;48.704;9.122;2022-08-24T17:42:46;28.20;53.50
1091;DHT22;534;48.704;9.122;2022-08-24T17:45:14;28.30;53.60
1091;DHT22;534;48.704;9.122;2022-08-24T17:47:41;28.30;53.60
1091;DHT22;534;48.704;9.122;2022-08-24T17:50:09;28.10;53.80
1091;DHT22;534;48.704;9.122;2022-08-24T17:52:38;28.10;53.90
1091;DHT22;534;48.704;9.122;2022-08-24T17:55:06;28.10;53.90
1091;DHT22;534;48.704;9.122;2022-08-24T17:57:33;28.20;53.70
1091;DHT22;534;48.704;9.122;2022-08-24T18:00:00;28.30;53.50
1091;DHT22;534;48.704;9.122;2022-08-24T18:02:27;28.10;53.90
1091;DHT22;534;48.704;9.122;2022-08-24T18:04:54;28.00;54.10
1091;DHT22;534;48.704;9.122;2022-08-24T18:07:21;28.00;54.30
1091;DHT22;534;48.704;9.122;2022-08-24T18:09:51;28.00;54.60
1091;DHT22;534;48.704;9.122;2022-08-24T18:12:20;28.00;54.60
1091;DHT22;534;48.704;9.122;2022-08-24T18:14:47;28.00;54.70
1091;DHT22;534;48.704;9.122;2022-08-24T18:17:16;27.80;55.20
1091;DHT22;534;48.704;9.122;2022-08-24T18:19:44;27.90;55.20
1091;DHT22;534;48.704;9.122;2022-08-24T18:22:12;27.90;55.20
1091;DHT22;534;48.704;9.122;2022-08-24T18:24:39;27.80;55.50
1091;DHT22;534;48.704;9.122;2022-08-24T18:27:10;27.90;55.50
1091;DHT22;534;48.704;9.122;2022-08-24T18:29:39;27.90;55.50
1091;DHT22;534;48.704;9.122;2022-08-24T18:32:07;28.00;55.30
1091;DHT22;534;48.704;9.122;2022-08-24T18:34:34;27.90;55.60
1091;DHT22;534;48.704;9.122;2022-08-24T18:37:01;28.00;55.40
1091;DHT22;534;48.704;9.122;2022-08-24T18:39:27;28.10;55.40
1091;DHT22;534;48.704;9.122;2022-08-24T18:41:56;27.80;56.10
1091;DHT22;534;48.704;9.122;2022-08-24T18:44:25;27.90;56.10
1091;DHT22;534;48.704;9.122;2022-08-24T18:46:52;28.10;55.90
1091;DHT22;534;48.704;9.122;2022-08-24T18:49:20;28.10;55.50
1091;DHT22;534;48.704;9.122;2022-08-24T18:51:48;28.10;55.50
1091;DHT22;534;48.704;9.122;2022-08-24T18:54:17;27.90;56.00
1091;DHT22;534;48.704;9.122;2022-08-24T18:56:44;27.90;56.10
1091;DHT22;534;48.704;9.122;2022-08-24T18:59:13;27.70;56.50
1091;DHT22;534;48.704;9.122;2022-08-24T19:01:42;27.70;56.60
1091;DHT22;534;48.704;9.122;2022-08-24T19:04:28;27.80;56.40
1091;DHT22;534;48.704;9.122;2022-08-24T19:06:55;27.70;56.60
1091;DHT22;534;48.704;9.122;2022-08-24T19:09:22;27.60;56.90
1091;DHT22;534;48.704;9.122;2022-08-24T19:11:49;27.70;56.70
1091;DHT22;534;48.704;9.122;2022-08-24T19:14:15;27.80;56.80
1091;DHT22;534;48.704;9.122;2022-08-24T19:16:44;27.90;57.00
1091;DHT22;534;48.704;9.122;2022-08-24T19:19:10;27.90;56.90
1091;DHT22;534;48.704;9.122;2022-08-24T19:21:37;27.90;56.90
1091;DHT22;534;48.704;9.122;2022-08-24T19:24:05;27.90;57.10
1091;DHT22;534;48.704;9.122;2022-08-24T19:26:33;27.80;57.00
1091;DHT22;534;48.704;9.122;2022-08-24T19:29:00;27.80;57.20
1091;DHT22;534;48.704;9.122;2022-08-24T19:31:27;27.80;57.20
1091;DHT22;534;48.704;9.122;2022-08-24T19:33:56;27.70;57.30
1091;DHT22;534;48.704;9.122;2022-08-24T19:36:25;27.70;57.40
1091;DHT22;534;48.704;9.122;2022-08-24T19:38:52;27.60;57.60
1091;DHT22;534;48.704;9.122;2022-08-24T19:41:18;27.50;57.70
1091;DHT22;534;48.704;9.122;2022-08-24T19:43:49;27.50;58.00
1091;DHT22;534;48.704;9.122;2022-08-24T19:46:34;27.50;58.10
1091;DHT22;534;48.704;9.122;2022-08-24T19:49:02;27.40;58.10
1091;DHT22;534;48.704;9.122;2022-08-24T19:51:29;27.30;58.30
1091;DHT22;534;48.704;9.122;2022-08-24T19:53:56;27.30;58.30
1091;DHT22;534;48.704;9.122;2022-08-24T19:56:23;27.20;58.60
1091;DHT22;534;48.704;9.122;2022-08-24T19:58:51;27.20;58.80
1091;DHT22;534;48.704;9.122;2022-08-24T20:01:20;27.10;58.90
1091;DHT22;534;48.704;9.122;2022-08-24T20:03:47;27.10;58.80
1091;DHT22;534;48.704;9.122;2022-08-24T20:06:16;27.00;59.00
1091;DHT22;534;48.704;9.122;2022-08-24T20:08:45;27.00;59.00